createdAt,value
2019-05-05T11:14:48.950Z,60.49
2019-05-05T11:24:59.948Z,59.94
2019-05-05T11:34:53.549Z,57.85
2019-05-05T11:44:54.414Z,57.46
2019-05-05T11:55:08.627Z,58.05
2019-05-05T12:04:58.350Z,57.20
2019-05-05T12:14:58.999Z,61.67
2019-05-05T12:24:59.702Z,56.57
2019-05-05T12:35:00.390Z,56.63
2019-05-05T12:45:01.014Z,60.33
2019-05-05T12:55:05.124Z,57.30
2019-05-05T13:05:06.064Z,54.07
2019-05-05T13:15:08.456Z,53.05
2019-05-05T13:25:09.168Z,60.64
2019-05-05T13:35:09.925Z,61.48
2019-05-05T13:45:10.975Z,59.77
2019-05-05T13:55:13.843Z,64.62
2019-05-05T14:05:14.828Z,56.88
2019-05-05T14:15:18.044Z,57.75
2019-05-05T14:25:24.220Z,55.60
2019-05-05T14:35:25.403Z,52.63
2019-05-05T14:45:26.149Z,54.44
2019-05-05T14:55:26.865Z,50.19
2019-05-05T15:05:27.757Z,50.00
2019-05-05T15:15:28.615Z,47.73
2019-05-05T15:25:30.262Z,52.13
2019-05-05T15:35:30.931Z,53.33
2019-05-05T15:45:31.610Z,64.35
2019-05-05T15:55:33.984Z,63.32
2019-05-05T16:05:34.695Z,64.06
2019-05-05T16:15:35.398Z,59.56
2019-05-05T16:25:36.446Z,58.09
2019-05-05T16:35:37.421Z,57.79
2019-05-05T16:45:38.468Z,57.99
2019-05-05T16:55:39.161Z,60.47
2019-05-05T17:05:40.061Z,60.39
2019-05-05T17:15:40.773Z,58.95
2019-05-05T17:25:43.810Z,58.97
2019-05-05T17:35:44.347Z,59.54
2019-05-05T17:45:45.031Z,58.95
2019-05-05T17:55:45.922Z,59.48
2019-05-05T18:05:46.603Z,60.65
2019-05-05T18:15:48.362Z,61.83
2019-05-05T18:25:49.317Z,62.16
2019-05-05T18:35:50.233Z,63.80
2019-05-05T18:45:51.204Z,65.41
2019-05-05T18:55:53.887Z,66.45
2019-05-05T19:05:54.746Z,68.71
2019-05-05T19:15:55.623Z,68.16
2019-05-05T19:25:58.504Z,66.83
2019-05-05T19:35:59.226Z,67.67
2019-05-05T19:46:00.155Z,67.58
2019-05-05T19:56:01.042Z,66.90
2019-05-05T20:06:02.018Z,66.57
2019-05-05T20:16:04.488Z,68.18
2019-05-05T20:26:05.559Z,67.50
2019-05-05T20:36:06.517Z,69.69
2019-05-05T20:46:08.321Z,65.68
2019-05-05T20:56:09.007Z,72.70
2019-05-05T21:06:09.763Z,72.30
2019-05-05T21:16:10.694Z,72.22
2019-05-05T21:26:11.384Z,70.33
2019-05-05T21:36:14.568Z,70.22
2019-05-05T21:46:15.397Z,69.88
2019-05-05T21:56:16.295Z,69.54
2019-05-05T22:06:16.937Z,69.03
2019-05-05T22:16:17.637Z,71.45
2019-05-05T22:26:18.559Z,69.73
2019-05-05T22:36:19.210Z,70.16
2019-05-05T22:46:19.897Z,69.18
2019-05-05T22:56:20.814Z,67.85
2019-05-05T23:06:21.592Z,70.26
2019-05-05T23:16:23.757Z,69.67
2019-05-05T23:26:25.412Z,72.45
2019-05-05T23:36:26.101Z,72.37
2019-05-05T23:46:26.989Z,72.59
2019-05-05T23:56:27.891Z,75.98
